Time;durP1;ratioP1;P1;durP2;ratioP2;P2;SDS_P1;SDS_P2;PMS_P1;PMS_P2;Temp;Humidity;BMP_temperature;BMP_pressure;BME280_temperature;BME280_humidity;BME280_pressure;Samples;Min_cycle;Max_cycle;Signal;HPM_P1;HPM_P2
2022/12/14 00:01:16;;;;;;;16.13;7.47;;;;;;;16.18;100.00;100837.97;2097056;28;20052;-77
2022/12/14 00:02:39;;;;;;;12.07;6.43;;;;;;;16.19;100.00;100842.41;2103543;28;20521;-77
2022/12/14 00:04:01;;;;;;;21.85;11.85;;;;;;;16.19;100.00;100847.75;2103846;28;20379;-77
2022/12/14 00:05:23;;;;;;;31.27;17.67;;;;;;;16.20;100.00;100846.84;2103034;28;20709;-77
2022/12/14 00:06:46;;;;;;;29.20;14.73;;;;;;;16.21;100.00;100845.97;2097483;28;20045;-76
2022/12/14 00:08:09;;;;;;;25.90;15.82;;;;;;;16.22;100.00;100837.94;2102818;28;20040;-77
2022/12/14 00:09:30;;;;;;;14.20;8.13;;;;;;;16.24;100.00;100836.16;2097927;28;20471;-76
2022/12/14 00:10:53;;;;;;;14.13;7.03;;;;;;;16.25;100.00;100839.72;2094778;28;20040;-77
2022/12/14 00:12:16;;;;;;;12.82;5.85;;;;;;;16.24;100.00;100836.16;2102164;28;20044;-76
2022/12/14 00:13:38;;;;;;;9.00;4.47;;;;;;;16.26;100.00;100841.47;2103397;28;20048;-76
2022/12/14 00:15:00;;;;;;;12.45;5.60;;;;;;;16.25;100.00;100840.59;2100902;28;20119;-77
2022/12/14 00:16:24;;;;;;;15.65;7.13;;;;;;;16.26;100.00;100847.69;2103233;28;20036;-77
2022/12/14 00:17:45;;;;;;;14.95;6.03;;;;;;;16.27;100.00;100846.81;2097542;28;20147;-77
2022/12/14 00:19:08;;;;;;;9.73;4.95;;;;;;;16.27;100.00;100851.25;2103203;28;20134;-77
2022/12/14 00:20:32;;;;;;;9.35;4.47;;;;;;;16.26;100.00;100858.34;2099844;28;20668;-76
2022/12/14 00:21:54;;;;;;;10.05;4.43;;;;;;;16.28;100.00;100863.66;2103104;28;20044;-77
2022/12/14 00:23:16;;;;;;;12.27;4.18;;;;;;;16.26;100.00;100858.34;2104882;28;20395;-76
2022/12/14 00:24:38;;;;;;;9.23;5.13;;;;;;;16.25;100.00;100863.69;2105870;28;20078;-77
2022/12/14 00:26:09;;;;;;;9.98;3.97;;;;;;;16.24;100.00;100857.47;2104381;28;20059;-77
2022/12/14 00:27:31;;;;;;;8.52;4.43;;;;;;;16.25;100.00;100861.03;2094687;28;20052;-77
2022/12/14 00:28:55;;;;;;;9.55;4.40;;;;;;;16.25;100.00;100867.22;2085862;28;20049;-77
2022/12/14 00:30:19;;;;;;;12.10;6.10;;;;;;;16.25;100.00;100864.56;2092585;28;20488;-76
2022/12/14 00:31:42;;;;;;;18.95;7.70;;;;;;;16.25;100.00;100863.69;2094930;28;20048;-76
2022/12/14 00:33:04;;;;;;;13.77;5.88;;;;;;;16.26;100.00;100865.47;2096909;28;20460;-77
2022/12/14 00:34:25;;;;;;;11.65;4.32;;;;;;;16.24;100.00;100856.59;2094867;28;20036;-77
2022/12/14 00:35:47;;;;;;;9.60;4.07;;;;;;;16.20;100.00;100853.06;2102197;28;20109;-77
2022/12/14 00:37:10;;;;;;;9.70;3.80;;;;;;;16.17;100.00;100855.72;2097277;28;20117;-76
2022/12/14 00:38:31;;;;;;;8.20;4.07;;;;;;;16.12;100.00;100854.88;2097425;28;20674;-77
2022/12/14 00:39:53;;;;;;;15.57;7.95;;;;;;;16.08;100.00;100847.78;2094702;28;20046;-76
2022/12/14 00:41:17;;;;;;;17.90;9.35;;;;;;;16.08;100.00;100850.44;2094576;28;20044;-76
2022/12/14 00:42:39;;;;;;;15.30;7.40;;;;;;;16.08;100.00;100844.25;2094662;28;20045;-76
2022/12/14 00:44:01;;;;;;;11.88;4.95;;;;;;;16.10;100.00;100846.00;2094591;28;20048;-76
2022/12/14 00:45:24;;;;;;;18.27;6.25;;;;;;;16.15;100.00;100848.63;2087275;28;20049;-77
2022/12/14 00:46:46;;;;;;;17.35;5.82;;;;;;;16.13;100.00;100850.44;2094617;28;20051;-76
2022/12/14 00:48:08;;;;;;;41.00;28.08;;;;;;;16.12;100.00;100864.66;2095714;28;20441;-77
2022/12/14 00:49:31;;;;;;;46.47;34.13;;;;;;;16.07;100.00;100864.69;2103228;28;20055;-77
2022/12/14 00:50:54;;;;;;;23.27;16.98;;;;;;;16.08;100.00;100876.22;2109541;28;20066;-76
2022/12/14 00:52:16;;;;;;;20.30;10.80;;;;;;;16.08;100.00;100871.75;2105472;28;20047;-76
2022/12/14 00:53:37;;;;;;;19.20;13.15;;;;;;;16.08;100.00;100869.09;2102984;28;20048;-77
2022/12/14 00:54:59;;;;;;;15.82;8.90;;;;;;;16.06;100.00;100872.66;2102724;28;20040;-77
2022/12/14 00:56:22;;;;;;;12.65;6.15;;;;;;;16.03;100.00;100868.22;2105125;28;20063;-78
2022/12/14 00:57:44;;;;;;;12.80;5.97;;;;;;;16.02;100.00;100876.22;2102973;28;20077;-78
2022/12/14 00:59:07;;;;;;;9.95;5.88;;;;;;;16.01;100.00;100880.69;2105283;28;20044;-78
2022/12/14 01:00:29;;;;;;;23.60;15.45;;;;;;;16.01;100.00;100875.38;2099375;28;20071;-78
2022/12/14 01:01:51;;;;;;;26.38;17.95;;;;;;;16.05;100.00;100881.53;2111244;28;20112;-78
2022/12/14 01:03:12;;;;;;;32.50;25.08;;;;;;;16.06;100.00;100878.00;2101861;28;20040;-78
2022/12/14 01:04:35;;;;;;;27.38;22.23;;;;;;;16.05;100.00;100882.44;2101479;28;20056;-79
2022/12/14 01:05:56;;;;;;;26.08;23.27;;;;;;;16.07;100.00;100879.78;2102885;28;20554;-78
2022/12/14 01:07:18;;;;;;;20.77;15.73;;;;;;;16.06;100.00;100888.66;2094401;28;20043;-77
2022/12/14 01:08:41;;;;;;;23.23;13.93;;;;;;;16.06;100.00;100884.22;2105827;28;20058;-78
2022/12/14 01:10:04;;;;;;;16.08;9.48;;;;;;;16.07;100.00;100887.75;2105685;28;20044;-77
2022/12/14 01:11:27;;;;;;;10.60;5.70;;;;;;;16.08;100.00;100881.53;2103742;28;20044;-77
2022/12/14 01:12:50;;;;;;;9.98;5.70;;;;;;;16.06;100.00;100881.53;2101837;28;20048;-77
2022/12/14 01:14:14;;;;;;;9.80;5.20;;;;;;;16.06;100.00;100878.00;2102358;28;20040;-77
2022/12/14 01:15:36;;;;;;;11.60;5.18;;;;;;;16.05;100.00;100869.13;2101616;28;20047;-77
2022/12/14 01:16:57;;;;;;;11.73;5.88;;;;;;;16.05;100.00;100861.13;2094345;28;20087;-77
2022/12/14 01:18:20;;;;;;;11.65;5.30;;;;;;;16.05;100.00;100853.13;2102606;28;20089;-78
2022/12/14 01:19:42;;;;;;;14.43;6.18;;;;;;;16.05;100.00;100852.25;2096946;28;20048;-78
2022/12/14 01:21:10;;;;;;;9.10;5.60;;;;;;;16.04;100.00;100848.69;2094361;28;20052;-77
2022/12/14 01:22:33;;;;;;;10.98;5.93;;;;;;;16.01;100.00;100842.53;2101185;28;20112;-78
2022/12/14 01:23:56;;;;;;;11.60;5.90;;;;;;;15.98;100.00;100854.06;2102707;28;20076;-78
2022/12/14 01:25:18;;;;;;;11.85;5.65;;;;;;;15.95;100.00;100854.94;2103834;28;20044;-78
2022/12/14 01:26:41;;;;;;;15.73;7.60;;;;;;;15.95;100.00;100856.72;2102809;28;20052;-78
2022/12/14 01:28:03;;;;;;;29.30;16.38;;;;;;;15.93;100.00;100856.75;2105595;28;20569;-78
2022/12/14 01:29:26;;;;;;;33.17;18.58;;;;;;;15.93;100.00;100867.41;2105167;28;20048;-78
2022/12/14 01:30:47;;;;;;;54.30;29.58;;;;;;;15.93;100.00;100866.53;2102411;28;20051;-78
2022/12/14 01:32:09;;;;;;;30.83;16.27;;;;;;;15.93;100.00;100862.09;2101965;28;20048;-78
2022/12/14 01:33:31;;;;;;;23.48;13.45;;;;;;;15.95;100.00;100854.06;2105430;28;20044;-78
2022/12/14 01:34:53;;;;;;;19.90;10.48;;;;;;;15.96;100.00;100861.16;2105515;28;20048;-78
2022/12/14 01:36:17;;;;;;;15.98;7.68;;;;;;;15.96;100.00;100861.16;2110767;28;20048;-78
2022/12/14 01:37:39;;;;;;;10.90;5.82;;;;;;;15.93;100.00;100859.41;2111469;28;20083;-77
2022/12/14 01:39:02;;;;;;;13.52;6.38;;;;;;;15.92;100.00;100854.09;2106977;28;20040;-77
2022/12/14 01:40:24;;;;;;;13.68;5.97;;;;;;;15.87;100.00;100856.78;2105415;28;20048;-77
2022/12/14 01:41:51;;;;;;;9.98;5.60;;;;;;;15.85;100.00;100855.91;2102000;28;20044;-78
2022/12/14 01:43:13;;;;;;;18.35;8.52;;;;;;;15.85;100.00;100871.00;2103341;28;20115;-77
2022/12/14 01:44:54;;;;;;;21.70;11.13;;;;;;;15.87;100.00;100856.78;2102493;28;20074;-77
2022/12/14 01:46:20;;;;;;;17.58;8.63;;;;;;;15.88;100.00;100847.88;2104310;28;20063;-77
2022/12/14 01:47:47;;;;;;;13.68;6.90;;;;;;;15.89;100.00;100854.09;2094834;28;20609;-78
2022/12/14 01:49:16;;;;;;;13.60;6.88;;;;;;;15.88;100.00;100841.72;2099828;28;20493;-78
2022/12/14 01:50:42;;;;;;;15.80;7.93;;;;;;;15.91;100.00;100847.88;2110818;28;20048;-78
2022/12/14 01:52:08;;;;;;;15.00;8.65;;;;;;;15.94;100.00;100841.66;2105104;28;20052;-78
2022/12/14 01:53:30;;;;;;;15.32;7.00;;;;;;;15.92;100.00;100827.47;2102953;28;20060;-78
2022/12/14 01:54:57;;;;;;;11.00;6.30;;;;;;;15.92;100.00;100828.34;2102621;28;20055;-78
2022/12/14 01:56:20;;;;;;;12.05;6.13;;;;;;;15.92;100.00;100828.34;2103099;28;20043;-79
2022/12/14 01:57:47;;;;;;;12.48;6.05;;;;;;;15.92;100.00;100822.16;2102586;28;20056;-78
2022/12/14 01:59:14;;;;;;;10.38;4.82;;;;;;;15.90;100.00;100829.25;2103160;28;20044;-79
2022/12/14 02:00:37;;;;;;;12.85;5.20;;;;;;;15.90;100.00;100826.59;2098640;28;20041;-78
2022/12/14 02:02:00;;;;;;;13.93;5.18;;;;;;;15.89;100.00;100824.81;2094706;28;20049;-79
2022/12/14 02:03:26;;;;;;;11.45;4.80;;;;;;;15.88;100.00;100833.72;2102487;28;20107;-78
2022/12/14 02:04:53;;;;;;;12.68;5.28;;;;;;;15.86;100.00;100839.03;2102992;28;20724;-78
2022/12/14 02:06:19;;;;;;;9.95;4.38;;;;;;;15.83;100.00;100833.72;2100886;28;21215;-78
2022/12/14 02:07:43;;;;;;;9.52;4.38;;;;;;;15.82;100.00;100834.59;2102806;28;20629;-78
2022/12/14 02:09:09;;;;;;;11.43;5.25;;;;;;;15.84;100.00;100818.63;2101751;28;20056;-79
2022/12/14 02:10:31;;;;;;;9.85;4.95;;;;;;;15.85;100.00;100826.63;2103229;28;20048;-78
2022/12/14 02:11:56;;;;;;;;;;;;;;;15.82;100.00;100821.28;2096299;28;20049;-78
2022/12/14 02:13:22;;;;;;;10.63;5.07;;;;;;;15.84;100.00;100818.63;2097237;28;19920;-79
2022/12/14 02:14:46;;;;;;;13.43;7.63;;;;;;;15.85;100.00;100812.41;2101335;28;20044;-79
2022/12/14 02:16:08;;;;;;;14.55;7.38;;;;;;;15.83;100.00;100816.84;2102239;28;20471;-78
2022/12/14 02:17:30;;;;;;;17.27;9.05;;;;;;;15.83;100.00;100811.53;2096942;28;20056;-78
2022/12/14 02:18:52;;;;;;;19.55;12.93;;;;;;;15.82;100.00;100810.66;2102126;28;20051;-78
2022/12/14 02:20:16;;;;;;;35.85;27.45;;;;;;;15.84;100.00;100810.66;2104648;28;20047;-78
2022/12/14 02:22:06;;;;;;;38.47;24.38;;;;;;;15.85;100.00;100815.09;2101127;28;20538;-78
2022/12/14 02:23:47;;;;;;;14.13;7.18;;;;;;;15.83;100.00;100816.84;2102834;28;20052;-77
2022/12/14 02:25:31;;;;;;;10.45;5.47;;;;;;;15.81;100.00;100808.91;2099198;28;20044;-78
2022/12/14 02:27:04;;;;;;;10.25;5.13;;;;;;;15.84;100.00;100813.31;2109073;28;20055;-78
2022/12/14 02:28:53;;;;;;;12.10;5.25;;;;;;;15.86;100.00;100811.53;2103296;28;20074;-78
2022/12/14 02:30:19;;;;;;;14.20;5.40;;;;;;;15.87;100.00;100808.88;2103983;28;20052;-78
2022/12/14 02:31:50;;;;;;;13.10;5.75;;;;;;;15.89;100.00;100804.41;2104134;28;20044;-78
2022/12/14 02:33:29;;;;;;;10.25;5.45;;;;;;;15.90;100.00;100807.94;2096876;28;20043;-78
2022/12/14 02:34:59;;;;;;;10.02;4.68;;;;;;;15.89;100.00;100795.53;2101521;28;20737;-79
2022/12/14 02:36:33;;;;;;;8.93;4.57;;;;;;;15.88;100.00;100793.78;2101923;28;20842;-78
2022/12/14 02:38:15;;;;;;;9.25;4.50;;;;;;;15.87;100.00;100787.56;2104180;28;20395;-78
2022/12/14 02:39:43;;;;;;;13.10;5.22;;;;;;;15.87;100.00;100779.59;2105185;28;20048;-78
2022/12/14 02:41:13;;;;;;;10.52;4.97;;;;;;;15.89;100.00;100783.09;2094856;28;20487;-77
2022/12/14 02:42:45;;;;;;;12.00;4.10;;;;;;;15.89;100.00;100779.53;2101273;28;20063;-78
2022/12/14 02:44:17;;;;;;;10.23;4.43;;;;;;;15.88;100.00;100785.78;2102491;28;20064;-78
2022/12/14 02:45:46;;;;;;;10.65;3.75;;;;;;;15.84;100.00;100784.91;2102409;28;20052;-78
2022/12/14 02:47:15;;;;;;;10.23;4.57;;;;;;;15.83;100.00;100788.47;2104939;28;20048;-78
2022/12/14 02:48:41;;;;;;;12.85;4.75;;;;;;;15.83;100.00;100790.22;2094759;28;20080;-78
2022/12/14 02:50:10;;;;;;;9.63;4.60;;;;;;;15.84;100.00;100792.91;2102095;28;20097;-78
2022/12/14 02:51:44;;;;;;;14.80;5.43;;;;;;;15.85;100.00;100788.47;2101937;28;20082;-79
2022/12/14 02:53:14;;;;;;;17.10;5.53;;;;;;;15.87;100.00;100787.56;2102861;28;20147;-78
2022/12/14 02:54:45;;;;;;;15.27;4.20;;;;;;;15.90;100.00;100790.19;2103391;28;20044;-78
2022/12/14 02:56:12;;;;;;;13.32;4.38;;;;;;;15.94;100.00;100788.41;2103049;28;20036;-78
2022/12/14 02:57:41;;;;;;;13.43;4.80;;;;;;;15.94;100.00;100780.44;2106047;28;20054;-78
2022/12/14 02:59:07;;;;;;;13.20;5.20;;;;;;;15.95;100.00;100782.16;2096659;28;20078;-78
2022/12/14 03:00:33;;;;;;;11.30;4.30;;;;;;;15.95;100.00;100783.06;2109542;28;20511;-78
2022/12/14 03:01:57;;;;;;;11.43;4.43;;;;;;;15.90;100.00;100776.88;2105418;28;20048;-79
2022/12/14 03:03:19;;;;;;;9.50;4.10;;;;;;;15.87;100.00;100776.03;2093928;28;20041;-78
2022/12/14 03:04:46;;;;;;;10.90;4.38;;;;;;;15.83;100.00;100771.59;2098052;28;20032;-78
2022/12/14 03:06:24;;;;;;;8.88;3.78;;;;;;;15.78;100.00;100771.63;2095340;28;20041;-79
2022/12/14 03:07:49;;;;;;;10.27;3.95;;;;;;;15.75;100.00;100766.31;2095626;28;20043;-78
2022/12/14 03:09:18;;;;;;;10.45;3.85;;;;;;;15.73;100.00;100760.13;2110814;28;20120;-78
2022/12/14 03:10:47;;;;;;;13.55;3.30;;;;;;;15.73;100.00;100765.47;2101327;28;20057;-78
2022/12/14 03:12:11;;;;;;;9.20;3.90;;;;;;;15.74;100.00;100761.03;2102987;28;20048;-79
2022/12/14 03:13:37;;;;;;;19.33;8.18;;;;;;;15.75;100.00;100754.81;2094234;28;20047;-79
2022/12/14 03:15:01;;;;;;;17.75;8.15;;;;;;;15.77;100.00;100751.22;2099381;28;20594;-81
2022/12/14 03:16:27;;;;;;;21.65;9.80;;;;;;;15.79;100.00;100749.44;2102356;28;20040;-79
2022/12/14 03:17:54;;;;;;;19.70;7.97;;;;;;;15.81;100.00;100747.69;2110994;28;20050;-79
2022/12/14 03:19:23;;;;;;;16.05;7.20;;;;;;;15.81;100.00;100745.00;2105083;28;20361;-79
2022/12/14 03:20:50;;;;;;;28.33;11.52;;;;;;;15.80;100.00;100750.34;2109665;28;20053;-79
2022/12/14 03:22:19;;;;;;;12.27;3.80;;;;;;;15.78;100.00;100745.03;2104882;28;20427;-80
2022/12/14 03:23:47;;;;;;;12.82;4.63;;;;;;;15.80;100.00;100742.34;2094334;28;20080;-80
2022/12/14 03:25:14;;;;;;;9.13;3.45;;;;;;;15.82;100.00;100744.09;2097494;28;20691;-80
2022/12/14 03:26:43;;;;;;;13.23;3.42;;;;;;;15.84;100.00;100744.09;2101505;28;20047;-80
2022/12/14 03:28:10;;;;;;;14.77;3.15;;;;;;;15.85;100.00;100745.88;2086909;28;20045;-80
2022/12/14 03:29:40;;;;;;;18.00;3.97;;;;;;;15.85;100.00;100743.22;2094552;28;20049;-80
2022/12/14 03:31:06;;;;;;;9.48;3.92;;;;;;;15.86;100.00;100748.53;2099084;28;20032;-80
2022/12/14 03:32:31;;;;;;;10.15;3.30;;;;;;;15.87;100.00;100749.41;2110432;28;20716;-80
2022/12/14 03:33:59;;;;;;;14.32;3.65;;;;;;;15.89;100.00;100752.94;2096734;28;20041;-79
2022/12/14 03:35:28;;;;;;;16.70;3.00;;;;;;;15.92;100.00;100747.59;2102838;28;20765;-80
2022/12/14 03:36:56;;;;;;;15.05;4.38;;;;;;;15.92;100.00;100745.81;2099861;28;20700;-80
2022/12/14 03:38:23;;;;;;;16.52;5.22;;;;;;;15.94;100.00;100745.81;2101874;28;20048;-80
2022/12/14 03:39:46;;;;;;;25.73;14.25;;;;;;;15.94;100.00;100748.47;2100517;28;20399;-79
2022/12/14 03:41:27;;;;;;;12.38;6.60;;;;;;;15.93;100.00;100744.94;2093725;28;20055;-79
2022/12/14 03:42:56;;;;;;;8.38;3.03;;;;;;;15.95;100.00;100747.56;2101076;28;20082;-78
2022/12/14 03:44:32;;;;;;;27.33;18.23;;;;;;;15.95;100.00;100753.78;2102896;28;20047;-79
2022/12/14 03:46:02;;;;;;;19.33;14.98;;;;;;;15.95;100.00;100753.78;2112036;28;20055;-78
2022/12/14 03:47:43;;;;;;;16.95;11.27;;;;;;;15.95;100.00;100751.09;2103505;28;20051;-79
2022/12/14 03:49:16;;;;;;;26.30;21.05;;;;;;;15.95;100.00;100750.22;2102685;28;20048;-79
2022/12/14 03:50:43;;;;;;;25.10;15.70;;;;;;;15.94;100.00;100765.34;2112055;28;20081;-78
2022/12/14 03:52:09;;;;;;;22.35;13.48;;;;;;;15.95;100.00;100758.22;2104495;28;20503;-78
2022/12/14 03:53:37;;;;;;;20.08;15.27;;;;;;;15.96;100.00;100757.31;2103497;28;20059;-79
2022/12/14 03:55:09;;;;;;;19.35;13.70;;;;;;;15.98;100.00;100747.56;2101795;28;20162;-79
2022/12/14 03:56:41;;;;;;;14.52;8.52;;;;;;;16.00;100.00;100755.53;2103045;28;20123;-78
2022/12/14 03:58:13;;;;;;;19.92;13.05;;;;;;;16.02;100.00;100753.72;2104808;28;20055;-79
2022/12/14 03:59:39;;;;;;;;;;;;;;;15.98;100.00;100749.31;2103039;28;20044;-80
2022/12/14 04:01:09;;;;;;;7.63;3.08;;;;;;;16.00;100.00;100755.53;2102387;28;19953;-79
2022/12/14 04:02:38;;;;;;;8.38;3.08;;;;;;;16.00;100.00;100751.09;2102890;28;20048;-79
2022/12/14 04:04:07;;;;;;;10.95;3.25;;;;;;;15.99;100.00;100740.44;2107746;28;20396;-79
2022/12/14 04:05:38;;;;;;;8.38;2.65;;;;;;;15.99;100.00;100752.00;2089730;28;20099;-79
2022/12/14 04:07:08;;;;;;;7.57;2.60;;;;;;;15.99;100.00;100754.66;2102893;28;20459;-79
2022/12/14 04:08:38;;;;;;;9.63;2.47;;;;;;;15.99;100.00;100743.13;2097824;28;20070;-80
2022/12/14 04:10:04;;;;;;;9.68;2.60;;;;;;;15.99;100.00;100748.44;2104452;28;20044;-79
2022/12/14 04:20:20;;;;;;;25.23;16.83;;;;;;;16.03;100.00;100753.72;2099707;28;20129;-79
2022/12/14 04:21:48;;;;;;;29.75;21.65;;;;;;;16.06;100.00;100761.72;2096144;28;20090;-78
2022/12/14 04:23:14;;;;;;;38.53;26.27;;;;;;;16.09;100.00;100755.47;2103980;28;20138;-77
2022/12/14 04:26:24;;;;;;;32.53;20.13;;;;;;;16.13;100.00;100768.75;2104595;28;20633;-78
2022/12/14 04:27:51;;;;;;;39.65;25.50;;;;;;;16.18;100.00;100768.72;2102260;28;20071;-78
2022/12/14 04:31:01;;;;;;;50.10;34.38;;;;;;;16.22;100.00;100775.78;2105616;28;20051;-79
2022/12/14 04:32:29;;;;;;;47.83;33.50;;;;;;;16.24;100.00;100774.00;2103072;28;20104;-77
2022/12/14 04:33:55;;;;;;;34.53;22.88;;;;;;;16.27;100.00;100774.00;2104089;28;20063;-78
2022/12/14 04:35:23;;;;;;;34.65;21.35;;;;;;;16.30;100.00;100787.28;2103259;28;20047;-79
2022/12/14 04:36:54;;;;;;;30.17;19.50;;;;;;;16.31;100.00;100775.72;2102925;28;20048;-79
2022/12/14 04:38:22;;;;;;;27.67;18.05;;;;;;;16.31;100.00;100773.06;2095860;28;20039;-78
2022/12/14 04:39:50;;;;;;;36.72;26.65;;;;;;;16.33;100.00;100779.28;2096456;28;20740;-78
2022/12/14 04:41:18;;;;;;;43.22;32.53;;;;;;;16.32;100.00;100777.50;2103862;28;20036;-78
2022/12/14 04:42:46;;;;;;;30.23;17.25;;;;;;;16.34;100.00;100783.72;2102737;28;20576;-79
2022/12/14 04:44:14;;;;;;;18.30;10.23;;;;;;;16.37;100.00;100780.13;2102667;28;20531;-78
2022/12/14 04:45:42;;;;;;;15.70;10.05;;;;;;;16.38;100.00;100789.88;2101962;28;20040;-78
2022/12/14 04:47:07;;;;;;;10.52;4.80;;;;;;;16.39;100.00;100792.53;2095558;28;20053;-79
2022/12/14 04:48:35;;;;;;;9.93;6.18;;;;;;;16.41;100.00;100793.41;2099605;28;20059;-79
2022/12/14 04:50:03;;;;;;;12.95;5.40;;;;;;;16.42;100.00;100792.50;2104693;28;20047;-79
2022/12/14 04:51:32;;;;;;;15.38;9.98;;;;;;;16.42;100.00;100788.94;2095572;28;20044;-78
2022/12/14 04:53:01;;;;;;;11.27;5.60;;;;;;;16.44;100.00;100796.06;2104274;28;20101;-78
2022/12/14 04:54:27;;;;;;;17.80;5.60;;;;;;;16.45;100.00;100802.25;2102589;28;20048;-78
2022/12/14 04:55:57;;;;;;;7.93;2.65;;;;;;;16.46;100.00;100804.03;2101879;28;20059;-78
2022/12/14 04:57:26;;;;;;;9.18;2.38;;;;;;;16.45;100.00;100796.94;2102838;28;20074;-78
2022/12/14 04:58:48;;;;;;;6.88;2.35;;;;;;;16.45;100.00;100789.81;2103084;28;20051;-79
2022/12/14 05:00:11;;;;;;;9.63;3.10;;;;;;;16.47;100.00;100801.38;2100401;28;20036;-78
2022/12/14 05:01:45;;;;;;;10.40;4.35;;;;;;;16.46;100.00;100802.25;2102838;28;20051;-78
2022/12/14 05:03:23;;;;;;;15.40;8.07;;;;;;;16.37;100.00;100797.00;2102993;28;20040;-78
2022/12/14 05:04:57;;;;;;;8.10;3.50;;;;;;;16.29;100.00;100796.16;2096399;28;20063;-79
2022/12/14 05:06:26;;;;;;;27.50;24.50;;;;;;;16.23;100.00;100804.19;2103540;28;20044;-79
2022/12/14 05:07:58;;;;;;;8.10;4.63;;;;;;;16.20;100.00;100805.13;2102851;28;20492;-78
2022/12/14 05:09:27;;;;;;;6.53;3.35;;;;;;;16.17;100.00;100806.91;2105279;28;20050;-79
2022/12/14 05:10:56;;;;;;;8.65;3.08;;;;;;;16.15;100.00;100809.56;2105403;28;20481;-78
2022/12/14 05:12:23;;;;;;;7.95;3.03;;;;;;;16.17;100.00;100806.91;2095699;28;20377;-79
2022/12/14 05:13:49;;;;;;;5.85;2.15;;;;;;;16.17;100.00;100801.56;2108169;28;20399;-79
2022/12/14 05:15:15;;;;;;;19.10;10.18;;;;;;;16.21;100.00;100804.19;2106973;28;20127;-78
2022/12/14 05:16:37;;;;;;;20.92;15.98;;;;;;;16.25;100.00;100797.09;2103418;28;20055;-79
2022/12/14 05:18:03;;;;;;;33.10;24.52;;;;;;;16.29;100.00;100804.16;2102860;28;20049;-78
2022/12/14 05:19:25;;;;;;;57.83;44.67;;;;;;;16.32;100.00;100798.81;2102113;28;20051;-80
2022/12/14 05:20:48;;;;;;;28.40;21.80;;;;;;;16.35;100.00;100801.44;2103170;28;20523;-79
2022/12/14 05:22:10;;;;;;;69.88;57.55;;;;;;;16.34;100.00;100800.53;2101571;28;20082;-78
2022/12/14 05:23:32;;;;;;;51.33;40.50;;;;;;;16.33;100.00;100797.94;2102803;28;20044;-78
2022/12/14 05:24:56;;;;;;;45.53;34.05;;;;;;;16.32;100.00;100801.47;2101904;28;20044;-79
2022/12/14 05:26:19;;;;;;;21.17;14.52;;;;;;;16.28;100.00;100807.69;2101067;28;20063;-79
2022/12/14 05:27:41;;;;;;;29.92;17.27;;;;;;;16.24;100.00;100808.63;2110402;28;20139;-78
2022/12/14 05:29:03;;;;;;;23.00;10.50;;;;;;;16.18;100.00;100811.34;2104444;28;20052;-79
2022/12/14 05:30:25;;;;;;;8.85;4.70;;;;;;;16.13;100.00;100794.50;2104343;28;20043;-79
2022/12/14 05:31:48;;;;;;;8.98;4.30;;;;;;;16.07;100.00;100800.75;2102752;28;20114;-78
2022/12/14 05:33:16;;;;;;;14.32;5.85;;;;;;;16.02;100.00;100805.22;2103070;28;20036;-79
2022/12/14 05:34:38;;;;;;;12.63;7.00;;;;;;;15.99;100.00;100805.25;2097012;28;20374;-78
2022/12/14 05:35:59;;;;;;;47.15;33.90;;;;;;;15.97;100.00;100800.81;2102936;28;20488;-78
2022/12/14 05:37:21;;;;;;;23.40;14.85;;;;;;;15.95;100.00;100798.16;2097037;28;20509;-79
2022/12/14 05:38:43;;;;;;;52.00;37.60;;;;;;;15.99;100.00;100807.91;2102719;28;20048;-79
2022/12/14 05:40:08;;;;;;;43.17;31.05;;;;;;;16.05;100.00;100799.00;2102860;28;20059;-79
2022/12/14 05:41:30;;;;;;;71.45;52.80;;;;;;;16.12;100.00;100798.06;2098155;28;20048;-79
2022/12/14 05:43:03;;;;;;;76.78;49.38;;;;;;;16.15;100.00;100796.25;2097072;28;20048;-78
2022/12/14 05:44:25;;;;;;;27.45;18.92;;;;;;;16.20;100.00;100798.91;2095499;28;20064;-79
2022/12/14 05:45:46;;;;;;;18.35;10.27;;;;;;;16.16;100.00;100791.81;2102832;28;20051;-79
2022/12/14 05:47:09;;;;;;;7.65;3.92;;;;;;;16.11;100.00;100790.97;2096961;28;20041;-78
2022/12/14 05:48:32;;;;;;;5.97;2.70;;;;;;;16.11;100.00;100798.94;2102706;28;20471;-79
2022/12/14 05:49:54;;;;;;;5.85;2.70;;;;;;;16.07;100.00;100800.75;2097268;28;20052;-79
2022/12/14 05:51:17;;;;;;;5.75;2.58;;;;;;;16.07;100.00;100807.88;2094455;28;20056;-79
2022/12/14 05:52:39;;;;;;;3.65;2.20;;;;;;;16.06;100.00;100811.41;2094140;28;20405;-79
2022/12/14 05:54:00;;;;;;;13.77;5.97;;;;;;;16.03;100.00;100809.66;2102052;28;20035;-79
2022/12/14 05:55:24;;;;;;;23.50;10.77;;;;;;;16.03;100.00;100804.31;2103067;28;20044;-80
2022/12/14 05:56:46;;;;;;;19.77;11.32;;;;;;;16.06;100.00;100820.28;2099157;28;20044;-80
2022/12/14 05:58:08;;;;;;;17.30;13.40;;;;;;;16.11;100.00;100818.47;2104288;28;20044;-80
2022/12/14 05:59:30;;;;;;;8.82;5.82;;;;;;;16.16;100.00;100821.09;2102701;28;20648;-79
2022/12/14 06:00:51;;;;;;;9.93;6.22;;;;;;;16.19;100.00;100822.00;2101108;28;20043;-79
2022/12/14 06:02:13;;;;;;;9.55;6.35;;;;;;;16.23;100.00;100828.16;2110823;28;20075;-80
2022/12/14 06:03:35;;;;;;;28.17;21.45;;;;;;;16.22;100.00;100821.06;2096452;28;20063;-79
2022/12/14 06:04:57;;;;;;;16.60;14.65;;;;;;;16.24;100.00;100822.84;2100528;28;20392;-79
2022/12/14 06:06:20;;;;;;;18.45;13.43;;;;;;;16.25;100.00;100824.63;2105701;28;20040;-78
2022/12/14 06:07:42;;;;;;;10.02;8.35;;;;;;;16.27;100.00;100830.81;2093993;28;20077;-79
2022/12/14 06:09:06;;;;;;;10.98;7.35;;;;;;;16.28;100.00;100834.34;2102871;28;20574;-78
2022/12/14 06:10:30;;;;;;;10.60;5.35;;;;;;;16.30;100.00;100833.44;2096682;28;20040;-78
2022/12/14 06:11:52;;;;;;;7.55;3.75;;;;;;;16.31;100.00;100839.66;2103182;28;20071;-78
2022/12/14 06:13:14;;;;;;;8.93;4.50;;;;;;;16.33;100.00;100836.09;2102501;28;20051;-79
2022/12/14 06:14:36;;;;;;;11.68;6.65;;;;;;;16.38;100.00;100844.06;2097510;28;20515;-79
2022/12/14 06:16:08;;;;;;;7.28;3.83;;;;;;;16.43;100.00;100841.34;2103731;28;20536;-79
2022/12/14 06:17:31;;;;;;;5.10;2.50;;;;;;;16.48;100.00;100837.75;2098597;28;20067;-78
2022/12/14 06:18:54;;;;;;;4.53;2.55;;;;;;;16.54;100.00;100845.69;2110978;28;20056;-78
2022/12/14 06:20:17;;;;;;;7.65;3.47;;;;;;;16.60;100.00;100835.06;2110740;28;20036;-78
2022/12/14 06:21:41;;;;;;;6.38;3.78;;;;;;;16.62;100.00;100843.91;2097379;28;20052;-79
2022/12/14 06:23:03;;;;;;;11.35;5.30;;;;;;;16.65;100.00;100843.00;2100839;28;20511;-79
2022/12/14 06:24:26;;;;;;;9.50;5.28;;;;;;;16.70;100.00;100850.06;2095038;28;20052;-79
2022/12/14 06:25:53;;;;;;;9.88;4.90;;;;;;;16.74;100.00;100848.25;2098622;28;20679;-79
2022/12/14 06:27:16;;;;;;;9.43;4.93;;;;;;;16.81;100.00;100854.41;2094348;28;20048;-79
2022/12/14 06:28:38;;;;;;;10.30;5.20;;;;;;;16.89;100.00;100861.47;2095285;28;20521;-79
2022/12/14 06:30:01;;;;;;;8.75;5.78;;;;;;;17.01;100.00;100864.00;2094716;28;20067;-79
2022/12/14 06:31:25;;;;;;;10.43;5.63;;;;;;;17.14;100.00;100875.44;2099484;28;20040;-79
2022/12/14 06:32:47;;;;;;;12.48;6.90;;;;;;;17.25;100.00;100878.91;2094865;28;20036;-79
2022/12/14 06:34:10;;;;;;;11.32;5.68;;;;;;;17.36;100.00;100882.34;2102245;28;20085;-79
2022/12/14 06:35:33;;;;;;;12.50;6.20;;;;;;;17.47;100.00;100877.78;2096949;28;20053;-79
2022/12/14 06:36:57;;;;;;;8.38;4.38;;;;;;;17.59;100.00;100887.44;2101974;28;20040;-78
2022/12/14 06:38:19;;;;;;;11.43;4.70;;;;;;;17.64;100.00;100895.44;2102773;28;20060;-79
2022/12/14 06:39:41;;;;;;;6.20;3.22;;;;;;;17.65;100.00;100890.09;2102180;28;20507;-79
2022/12/14 06:41:09;;;;;;;19.70;9.63;;;;;;;17.71;100.00;100886.47;2101773;28;20048;-79
2022/12/14 06:42:31;;;;;;;25.38;13.18;;;;;;;17.80;100.00;100895.25;2101416;28;20055;-77